createdAt,value
2023-05-01T00:00:27.215Z,96003.59
2023-05-01T00:01:29.086Z,96003.59
2023-05-01T00:02:30.967Z,95994.16
2023-05-01T00:03:33.218Z,95995.16
2023-05-01T00:04:35.070Z,95993.50
2023-05-01T00:05:36.704Z,95995.34
2023-05-01T00:06:38.445Z,95991.22
2023-05-01T00:07:39.972Z,95991.41
2023-05-01T00:08:41.469Z,95993.88
2023-05-01T00:09:42.964Z,95986.28
2023-05-01T00:10:44.487Z,95989.28
2023-05-01T00:11:46.347Z,95986.00
2023-05-01T00:12:47.838Z,95989.66
2023-05-01T00:13:49.362Z,95981.50
2023-05-01T00:14:50.807Z,95988.00
2023-05-01T00:15:52.662Z,95987.47
2023-05-01T00:16:54.306Z,95985.63
2023-05-01T00:17:55.937Z,95983.16
2023-05-01T00:18:58.491Z,95981.31
2023-05-01T00:20:00.252Z,95980.66
2023-05-01T00:21:01.969Z,95975.34
2023-05-01T00:22:03.609Z,95978.00
2023-05-01T00:23:05.410Z,95984.31
2023-05-01T00:24:06.932Z,95976.97
2023-05-01T00:25:09.308Z,95975.97
2023-05-01T00:26:10.921Z,95974.28
2023-05-01T00:27:15.090Z,95981.00
2023-05-01T00:28:18.883Z,95978.00
2023-05-01T00:29:20.578Z,95973.28
2023-05-01T00:30:22.185Z,95969.44
2023-05-01T00:31:26.381Z,95972.47
2023-05-01T00:32:28.175Z,95976.16
2023-05-01T00:33:29.787Z,95971.81
2023-05-01T00:34:31.337Z,95969.34
2023-05-01T00:35:32.961Z,95972.84
2023-05-01T00:36:34.471Z,95967.34
2023-05-01T00:37:35.998Z,95963.28
2023-05-01T00:38:37.522Z,95962.91
2023-05-01T00:39:39.390Z,95960.94
2023-05-01T00:40:44.925Z,95965.72
2023-05-01T00:41:46.507Z,95963.88
2023-05-01T00:42:48.339Z,95957.72
2023-05-01T00:43:51.233Z,95956.34
2023-05-01T00:44:52.724Z,95951.03
2023-05-01T00:45:54.336Z,95958.63
2023-05-01T00:46:57.178Z,95957.78
2023-05-01T00:47:59.008Z,95956.78
2023-05-01T00:49:01.443Z,95956.78
2023-05-01T00:50:04.970Z,95961.91
2023-05-01T00:51:08.604Z,95960.28
2023-05-01T00:52:10.192Z,95951.91
2023-05-01T00:53:12.389Z,95955.19
2023-05-01T00:54:14.038Z,95952.97
2023-05-01T00:55:16.574Z,95951.97
2023-05-01T00:56:18.341Z,95946.44
2023-05-01T00:57:22.971Z,95935.59
2023-05-01T00:58:24.530Z,95946.69
2023-05-01T00:59:26.419Z,95942.19
2023-05-01T01:00:29.442Z,95944.47
2023-05-01T01:01:31.047Z,95942.06
2023-05-01T01:02:32.968Z,95942.88
2023-05-01T01:03:34.558Z,95937.53
2023-05-01T01:04:36.382Z,95932.84
2023-05-01T01:05:46.600Z,95935.94
2023-05-01T01:07:12.645Z,95933.72
2023-05-01T01:08:30.598Z,95928.78
2023-05-01T01:10:14.990Z,95932.72
2023-05-01T01:12:02.098Z,95928.66
2023-05-01T01:13:10.630Z,95926.59
2023-05-01T01:14:17.635Z,95922.09
2023-05-01T01:15:37.651Z,95925.41
2023-05-01T01:16:46.175Z,95920.88
2023-05-01T01:18:21.876Z,95921.53
2023-05-01T01:19:44.770Z,95924.19
2023-05-01T01:21:07.347Z,95918.19
2023-05-01T01:22:13.612Z,95921.66
2023-05-01T01:23:32.678Z,95918.81
2023-05-01T01:24:55.386Z,95914.09
2023-05-01T01:26:18.399Z,95918.66
2023-05-01T01:27:32.442Z,95914.78
2023-05-01T01:28:46.257Z,95913.94
2023-05-01T01:30:06.766Z,95915.00
2023-05-01T01:31:17.509Z,95919.69
2023-05-01T01:32:37.829Z,95911.88
2023-05-01T01:34:01.815Z,95916.16
2023-05-01T01:35:08.004Z,95912.03
2023-05-01T01:36:22.712Z,95914.44
2023-05-01T01:37:30.605Z,95905.63
2023-05-01T01:38:45.454Z,95913.16
2023-05-01T01:39:55.348Z,95910.69
2023-05-01T01:41:02.072Z,95912.53
2023-05-01T01:42:09.097Z,95918.28
2023-05-01T01:43:13.520Z,95917.63
2023-05-01T01:44:28.005Z,95913.94
2023-05-01T01:45:36.418Z,95911.88
2023-05-01T01:46:41.176Z,95911.22
2023-05-01T01:47:45.391Z,95906.09
2023-05-01T01:48:50.359Z,95900.13
2023-05-01T01:49:54.165Z,95903.81
2023-05-01T01:50:58.714Z,95908.31
2023-05-01T01:52:05.470Z,95909.69
2023-05-01T01:53:11.700Z,95911.56
2023-05-01T01:54:18.772Z,95910.75
2023-05-01T01:55:27.791Z,95907.22
2023-05-01T01:56:30.931Z,95904.75
2023-05-01T01:57:34.753Z,95902.34
2023-05-01T01:58:39.806Z,95898.63
2023-05-01T01:59:43.510Z,95908.06
2023-05-01T02:00:45.541Z,95898.22
2023-05-01T02:01:50.040Z,95907.09
2023-05-01T02:02:53.016Z,95895.81
2023-05-01T02:03:58.091Z,95897.66
2023-05-01T02:05:00.287Z,95898.28
2023-05-01T02:06:04.264Z,95898.09
2023-05-01T02:07:07.372Z,95894.44
2023-05-01T02:08:11.554Z,95896.88
2023-05-01T02:09:19.109Z,95898.56
2023-05-01T02:10:22.981Z,95893.03
2023-05-01T02:11:25.773Z,95893.44
2023-05-01T02:12:29.434Z,95894.28
2023-05-01T02:13:31.607Z,95885.44
2023-05-01T02:14:34.345Z,95891.63
2023-05-01T02:15:38.630Z,95888.56
2023-05-01T02:16:42.649Z,95890.97
2023-05-01T02:17:44.893Z,95888.13
2023-05-01T02:18:46.944Z,95887.34
2023-05-01T02:19:50.269Z,95887.91
2023-05-01T02:20:53.312Z,95879.91
2023-05-01T02:21:57.593Z,95877.31
2023-05-01T02:22:59.966Z,95877.31
2023-05-01T02:24:02.312Z,95884.28
2023-05-01T02:25:04.779Z,95875.69
2023-05-01T02:26:10.834Z,95876.91
2023-05-01T02:27:26.422Z,95881.81
2023-05-01T02:28:29.789Z,95879.78
2023-05-01T02:29:31.377Z,95883.28
2023-05-01T02:30:32.972Z,95880.63
2023-05-01T02:31:34.835Z,95882.28
2023-05-01T02:32:36.743Z,95881.25
2023-05-01T02:33:38.568Z,95880.44
2023-05-01T02:34:40.495Z,95877.75
2023-05-01T02:35:44.374Z,95876.56
2023-05-01T02:36:46.014Z,95881.88
2023-05-01T02:37:47.662Z,95874.69
2023-05-01T02:38:51.092Z,95874.69
2023-05-01T02:39:52.622Z,95879.41
2023-05-01T02:40:57.819Z,95876.75
2023-05-01T02:42:03.236Z,95869.75
2023-05-01T02:43:08.921Z,95870.56
2023-05-01T02:44:12.783Z,95865.25
2023-05-01T02:45:19.890Z,95864.63
2023-05-01T02:46:24.379Z,95872.63
2023-05-01T02:47:27.724Z,95876.09
2023-05-01T02:48:32.442Z,95873.25
2023-05-01T02:49:35.030Z,95868.56
2023-05-01T02:50:40.840Z,95870.22
2023-05-01T02:51:43.334Z,95867.34
2023-05-01T02:52:45.314Z,95870.63
2023-05-01T02:54:02.126Z,95872.09
2023-05-01T02:55:05.663Z,95866.94
2023-05-01T02:56:08.013Z,95870.22
2023-05-01T02:57:10.668Z,95869.22
2023-05-01T02:58:16.870Z,95863.50
2023-05-01T02:59:18.361Z,95862.09
2023-05-01T03:00:19.942Z,95861.06
2023-05-01T03:01:21.723Z,95853.06
2023-05-01T03:02:23.227Z,95858.22
2023-05-01T03:03:24.752Z,95857.19
2023-05-01T03:04:26.972Z,95862.72
2023-05-01T03:05:28.535Z,95863.75
2023-05-01T03:06:31.184Z,95858.41
2023-05-01T03:07:35.226Z,95862.09
2023-05-01T03:08:37.177Z,95860.25
2023-05-01T03:09:39.412Z,95858.81
2023-05-01T03:10:43.443Z,95860.00
2023-05-01T03:11:44.890Z,95857.53
2023-05-01T03:12:46.400Z,95855.69
2023-05-01T03:13:48.879Z,95859.78
2023-05-01T03:14:50.746Z,95855.28
2023-05-01T03:15:52.301Z,95848.91
2023-05-01T03:16:55.944Z,95850.75
2023-05-01T03:17:57.524Z,95843.78
2023-05-01T03:18:59.406Z,95851.78
2023-05-01T03:20:01.171Z,95853.63
2023-05-01T03:21:02.668Z,95851.97
2023-05-01T03:22:04.906Z,95850.13
2023-05-01T03:23:07.007Z,95852.63
2023-05-01T03:24:08.801Z,95845.63
2023-05-01T03:25:10.468Z,95843.78
2023-05-01T03:26:12.872Z,95840.50
2023-05-01T03:27:14.353Z,95849.31
2023-05-01T03:28:16.655Z,95843.97
2023-05-01T03:29:18.396Z,95842.97
2023-05-01T03:30:19.860Z,95835.97
2023-05-01T03:31:21.814Z,95840.50
2023-05-01T03:32:23.493Z,95842.75
2023-05-01T03:33:27.791Z,95842.13
2023-05-01T03:34:29.618Z,95835.97
2023-05-01T03:35:31.742Z,95835.97
2023-05-01T03:36:33.922Z,95827.16
2023-05-01T03:37:36.125Z,95831.03
2023-05-01T03:38:37.763Z,95831.84
2023-05-01T03:40:02.312Z,95830.03
2023-05-01T03:41:22.112Z,95831.84
2023-05-01T03:42:41.945Z,95835.56
2023-05-01T03:43:52.041Z,95832.69
2023-05-01T03:45:14.874Z,95838.63
2023-05-01T03:46:16.493Z,95820.78
2023-05-01T03:47:19.517Z,95832.50
2023-05-01T03:48:22.294Z,95830.03
2023-05-01T03:49:23.967Z,95825.72
2023-05-01T03:50:25.742Z,95833.72
2023-05-01T03:51:27.330Z,95825.91
2023-05-01T03:52:30.244Z,95830.22
2023-05-01T03:53:32.970Z,95828.56
2023-05-01T03:54:38.261Z,95835.72
2023-05-01T03:55:57.612Z,95832.41
2023-05-01T03:56:59.120Z,95828.72
2023-05-01T03:58:00.673Z,95826.63
2023-05-01T03:59:02.911Z,95830.94
2023-05-01T04:00:06.895Z,95834.44
2023-05-01T04:01:16.760Z,95829.94
2023-05-01T04:02:19.547Z,95828.28
2023-05-01T04:03:21.569Z,95830.94
2023-05-01T04:04:29.834Z,95826.06
2023-05-01T04:05:32.745Z,95826.25
2023-05-01T04:06:37.246Z,95830.53
2023-05-01T04:07:39.141Z,95834.06
2023-05-01T04:08:40.933Z,95836.72
2023-05-01T04:09:43.817Z,95832.41
2023-05-01T04:10:45.337Z,95831.78
2023-05-01T04:11:47.143Z,95836.53
2023-05-01T04:12:48.615Z,95835.88
2023-05-01T04:13:50.181Z,95834.88
2023-05-01T04:14:53.099Z,95836.53
2023-05-01T04:15:57.511Z,95841.59
2023-05-01T04:17:00.754Z,95837.72
2023-05-01T04:18:03.907Z,95834.44
2023-05-01T04:19:05.544Z,95840.19
2023-05-01T04:20:11.099Z,95836.53
2023-05-01T04:21:14.646Z,95826.47
2023-05-01T04:22:16.643Z,95827.53
2023-05-01T04:23:20.299Z,95825.41
2023-05-01T04:24:21.996Z,95834.06
2023-05-01T04:25:23.538Z,95822.56
2023-05-01T04:26:28.087Z,95829.53
2023-05-01T04:27:29.711Z,95824.84
2023-05-01T04:28:31.276Z,95824.84
2023-05-01T04:29:32.781Z,95827.88
2023-05-01T04:30:34.372Z,95827.06
2023-05-01T04:31:36.225Z,95823.19
2023-05-01T04:32:37.955Z,95829.13
2023-05-01T04:33:39.639Z,95825.66
2023-05-01T04:34:41.161Z,95828.31
2023-05-01T04:35:43.669Z,95828.31
2023-05-01T04:36:45.365Z,95829.13
2023-05-01T04:37:47.235Z,95827.13
2023-05-01T04:38:48.870Z,95832.78
2023-05-01T04:39:51.742Z,95834.00
2023-05-01T04:40:56.149Z,95833.19
2023-05-01T04:41:57.986Z,95825.19
2023-05-01T04:43:00.529Z,95830.69
2023-05-01T04:44:02.115Z,95837.25
2023-05-01T04:45:04.331Z,95834.16
2023-05-01T04:46:09.672Z,95840.06
2023-05-01T04:47:11.451Z,95834.94
2023-05-01T04:48:13.075Z,95835.50
2023-05-01T04:49:14.576Z,95834.44
2023-05-01T04:50:16.426Z,95836.47
2023-05-01T04:51:18.070Z,95839.50
2023-05-01T04:52:19.585Z,95833.94
2023-05-01T04:53:29.367Z,95832.09
2023-05-01T04:54:31.963Z,95837.81
2023-05-01T04:55:33.491Z,95837.38
2023-05-01T04:56:41.975Z,95839.56
2023-05-01T04:57:43.444Z,95840.41
2023-05-01T04:58:44.978Z,95839.97
2023-05-01T04:59:50.609Z,95840.34
2023-05-01T05:00:52.126Z,95834.16
2023-05-01T05:01:57.116Z,95834.53
2023-05-01T05:02:59.139Z,95839.84
2023-05-01T05:04:01.642Z,95836.34
2023-05-01T05:05:05.220Z,95833.50
2023-05-01T05:06:07.012Z,95843.13
2023-05-01T05:07:09.370Z,95841.13
2023-05-01T05:08:33.851Z,95833.44
2023-05-01T05:09:43.326Z,95835.28
2023-05-01T05:10:45.098Z,95844.72
2023-05-01T05:12:21.934Z,95841.41
2023-05-01T05:13:23.567Z,95833.88
2023-05-01T05:14:32.974Z,95839.22
2023-05-01T05:15:35.378Z,95836.28
2023-05-01T05:16:38.326Z,95842.44
2023-05-01T05:17:39.888Z,95836.47
2023-05-01T05:18:41.666Z,95840.59
2023-05-01T05:19:43.290Z,95845.94
2023-05-01T05:20:45.176Z,95836.28
2023-05-01T05:21:46.775Z,95841.81
2023-05-01T05:22:48.349Z,95843.47
2023-05-01T05:23:57.011Z,95850.44
2023-05-01T05:25:04.012Z,95840.78
2023-05-01T05:26:05.734Z,95850.25
2023-05-01T05:27:07.268Z,95843.91
2023-05-01T05:28:08.934Z,95845.81
2023-05-01T05:29:10.617Z,95846.81
2023-05-01T05:30:12.576Z,95849.03
2023-05-01T05:31:14.294Z,95858.66
2023-05-01T05:32:15.865Z,95853.53
2023-05-01T05:33:17.780Z,95847.78
2023-05-01T05:34:19.888Z,95850.06
2023-05-01T05:35:21.714Z,95855.84
2023-05-01T05:36:23.410Z,95853.78
2023-05-01T05:37:25.929Z,95848.06
2023-05-01T05:38:28.062Z,95849.53
2023-05-01T05:39:32.217Z,95848.16
2023-05-01T05:40:33.929Z,95852.06
2023-05-01T05:41:36.358Z,95849.59
2023-05-01T05:42:37.835Z,95846.34
2023-05-01T05:43:41.173Z,95852.13
2023-05-01T05:44:43.520Z,95850.94
2023-05-01T05:45:46.490Z,95846.41
2023-05-01T05:46:48.566Z,95847.88
2023-05-01T05:48:01.814Z,95851.22
2023-05-01T05:49:06.706Z,95855.34
2023-05-01T05:50:09.990Z,95852.47
2023-05-01T05:51:11.826Z,95852.88
2023-05-01T05:52:13.565Z,95851.41
2023-05-01T05:53:15.152Z,95846.69
2023-05-01T05:54:18.022Z,95850.16
2023-05-01T05:55:21.209Z,95849.34
2023-05-01T05:56:34.578Z,95852.00
2023-05-01T05:57:37.700Z,95852.00
2023-05-01T05:58:41.722Z,95854.34
2023-05-01T05:59:45.066Z,95848.63
2023-05-01T06:00:53.198Z,95846.66
2023-05-01T06:01:54.786Z,95844.59
2023-05-01T06:02:56.643Z,95856.34
2023-05-01T06:04:01.461Z,95847.38
2023-05-01T06:05:05.269Z,95856.25
2023-05-01T06:06:06.994Z,95843.78
2023-05-01T06:07:08.865Z,95849.59
2023-05-01T06:08:10.639Z,95849.63
2023-05-01T06:09:12.947Z,95846.59
2023-05-01T06:10:15.338Z,95844.19
2023-05-01T06:11:17.631Z,95850.13
2023-05-01T06:12:19.137Z,95845.00
2023-05-01T06:13:21.528Z,95845.97
2023-05-01T06:14:24.652Z,95849.41
2023-05-01T06:15:26.278Z,95847.34
2023-05-01T06:16:29.543Z,95857.16
2023-05-01T06:17:31.475Z,95847.94
2023-05-01T06:18:33.096Z,95851.22
2023-05-01T06:19:35.982Z,95846.97
2023-05-01T06:20:42.754Z,95846.59
2023-05-01T06:21:44.308Z,95842.09
2023-05-01T06:22:46.830Z,95850.22
2023-05-01T06:24:11.218Z,95848.47
2023-05-01T06:25:24.203Z,95847.50
2023-05-01T06:26:26.571Z,95848.91
2023-05-01T06:27:28.174Z,95853.03
2023-05-01T06:28:30.430Z,95850.94
2023-05-01T06:29:31.978Z,95850.00
2023-05-01T06:30:33.931Z,95849.78
2023-05-01T06:31:36.244Z,95853.19
2023-05-01T06:32:38.119Z,95846.16
2023-05-01T06:33:39.601Z,95848.63
2023-05-01T06:34:55.020Z,95852.38
2023-05-01T06:35:59.585Z,95860.38
2023-05-01T06:37:01.197Z,95854.69
2023-05-01T06:38:03.055Z,95858.00
2023-05-01T06:39:04.638Z,95857.81
2023-05-01T06:40:09.184Z,95854.69
2023-05-01T06:41:11.247Z,95859.47
2023-05-01T06:42:16.240Z,95853.00
2023-05-01T06:43:17.732Z,95858.81
2023-05-01T06:44:20.581Z,95859.63
2023-05-01T06:45:22.089Z,95855.78
2023-05-01T06:46:24.731Z,95860.69
2023-05-01T06:47:26.216Z,95859.97
2023-05-01T06:48:27.733Z,95858.78
2023-05-01T06:49:29.308Z,95863.91
2023-05-01T06:50:31.098Z,95859.34
2023-05-01T06:51:33.882Z,95859.13
2023-05-01T06:52:35.698Z,95855.16
2023-05-01T06:53:37.817Z,95870.88
2023-05-01T06:54:39.297Z,95865.38
2023-05-01T06:55:41.161Z,95863.59
2023-05-01T06:56:43.089Z,95867.06
2023-05-01T06:57:44.560Z,95872.41
2023-05-01T06:58:46.997Z,95866.53
2023-05-01T06:59:48.468Z,95871.25
2023-05-01T07:00:50.252Z,95872.31
2023-05-01T07:01:52.732Z,95873.59
2023-05-01T07:02:54.358Z,95863.06
2023-05-01T07:03:55.868Z,95866.38
2023-05-01T07:04:57.337Z,95869.38
2023-05-01T07:05:58.947Z,95869.63
2023-05-01T07:07:01.024Z,95863.91
2023-05-01T07:08:02.501Z,95870.84
2023-05-01T07:09:05.097Z,95870.84
2023-05-01T07:10:07.054Z,95868.75
2023-05-01T07:11:08.778Z,95866.59
2023-05-01T07:12:10.321Z,95868.59
2023-05-01T07:13:11.866Z,95865.00
2023-05-01T07:14:13.354Z,95874.09
2023-05-01T07:15:16.344Z,95875.81
2023-05-01T07:16:18.299Z,95868.25
2023-05-01T07:17:19.840Z,95865.19
2023-05-01T07:18:21.325Z,95864.59
2023-05-01T07:19:22.870Z,95869.97
2023-05-01T07:20:24.541Z,95864.81
2023-05-01T07:21:26.091Z,95865.47
2023-05-01T07:22:28.949Z,95864.44
2023-05-01T07:23:30.626Z,95865.09
2023-05-01T07:24:32.109Z,95871.06
2023-05-01T07:25:33.620Z,95860.59
2023-05-01T07:26:35.221Z,95861.22
2023-05-01T07:27:36.771Z,95862.66
2023-05-01T07:28:38.823Z,95863.66
2023-05-01T07:29:40.621Z,95858.31
2023-05-01T07:30:42.044Z,95865.72
2023-05-01T07:31:44.248Z,95857.06
2023-05-01T07:32:46.002Z,95859.16
2023-05-01T07:33:48.054Z,95860.78
2023-05-01T07:34:49.829Z,95867.34
2023-05-01T07:35:51.726Z,95854.41
2023-05-01T07:36:53.190Z,95859.16
2023-05-01T07:37:55.133Z,95862.25
2023-05-01T07:38:57.831Z,95857.72
2023-05-01T07:39:59.372Z,95861.19
2023-05-01T07:41:01.072Z,95855.25
2023-05-01T07:42:02.596Z,95858.13
2023-05-01T07:43:04.950Z,95858.31
2023-05-01T07:44:06.698Z,95857.69
2023-05-01T07:45:08.875Z,95847.41
2023-05-01T07:46:10.955Z,95849.44
2023-05-01T07:47:13.033Z,95848.41
2023-05-01T07:48:14.604Z,95850.25
2023-05-01T07:49:16.360Z,95854.56
2023-05-01T07:50:18.236Z,95846.75
2023-05-01T07:51:20.009Z,95851.09
2023-05-01T07:52:21.488Z,95852.53
2023-05-01T07:53:23.068Z,95849.22
2023-05-01T07:54:24.960Z,95850.72
2023-05-01T07:55:26.524Z,95853.59
2023-05-01T07:56:27.998Z,95852.56
2023-05-01T07:57:30.152Z,95857.91
2023-05-01T07:58:31.596Z,95851.94
2023-05-01T07:59:33.108Z,95851.50
2023-05-01T08:00:35.668Z,95848.66
2023-05-01T08:01:37.234Z,95855.00
2023-05-01T08:02:38.788Z,95856.22
2023-05-01T08:03:40.588Z,95857.91
2023-05-01T08:04:42.749Z,95854.22
2023-05-01T08:05:44.277Z,95861.38
2023-05-01T08:06:45.800Z,95854.97
2023-05-01T08:07:47.614Z,95859.72
2023-05-01T08:08:49.093Z,95855.81
2023-05-01T08:09:50.642Z,95860.78
2023-05-01T08:10:52.633Z,95862.78
2023-05-01T08:11:54.102Z,95860.25
2023-05-01T08:12:55.806Z,95864.31
2023-05-01T08:13:57.490Z,95860.66
2023-05-01T08:14:59.056Z,95857.34
2023-05-01T08:16:02.872Z,95857.09
2023-05-01T08:17:04.512Z,95849.03
2023-05-01T08:18:06.013Z,95853.69
2023-05-01T08:19:07.806Z,95855.69
2023-05-01T08:20:10.530Z,95854.13
2023-05-01T08:21:12.297Z,95853.13
2023-05-01T08:22:14.198Z,95853.91
2023-05-01T08:23:17.361Z,95852.06
2023-05-01T08:24:19.061Z,95849.31
2023-05-01T08:25:20.940Z,95852.72
2023-05-01T08:26:22.895Z,95863.94
2023-05-01T08:27:24.517Z,95856.00
2023-05-01T08:28:26.296Z,95856.59
2023-05-01T08:29:27.967Z,95849.56
2023-05-01T08:30:29.793Z,95858.16
2023-05-01T08:31:31.410Z,95852.09
2023-05-01T08:32:33.541Z,95855.47
2023-05-01T08:33:35.080Z,95860.34
2023-05-01T08:34:36.522Z,95853.47
2023-05-01T08:35:38.035Z,95852.81
2023-05-01T08:36:39.614Z,95853.16
2023-05-01T08:37:41.102Z,95849.00
2023-05-01T08:38:42.642Z,95847.94
2023-05-01T08:39:44.203Z,95848.38
2023-05-01T08:40:53.468Z,95847.91
2023-05-01T08:41:55.768Z,95853.66
2023-05-01T08:43:00.454Z,95841.75
2023-05-01T08:44:03.279Z,95845.56
2023-05-01T08:45:08.805Z,95843.78
2023-05-01T08:46:15.675Z,95839.72
2023-05-01T08:47:18.426Z,95849.94
2023-05-01T08:48:20.849Z,95845.00
2023-05-01T08:49:24.005Z,95846.84
2023-05-01T08:50:27.579Z,95845.44
2023-05-01T08:51:31.265Z,95846.41
2023-05-01T08:52:33.692Z,95846.03
2023-05-01T08:53:35.699Z,95846.13
2023-05-01T08:54:39.229Z,95843.91
2023-05-01T08:55:45.257Z,95851.63
2023-05-01T08:56:47.649Z,95852.44
2023-05-01T08:57:49.503Z,95850.00
2023-05-01T08:58:53.397Z,95852.22
2023-05-01T08:59:58.596Z,95852.22
2023-05-01T09:01:03.089Z,95855.53
2023-05-01T09:02:08.094Z,95856.22
2023-05-01T09:03:12.051Z,95850.25
2023-05-01T09:04:15.750Z,95855.56
2023-05-01T09:05:21.389Z,95852.94
2023-05-01T09:06:23.262Z,95850.25
2023-05-01T09:07:25.467Z,95851.88
2023-05-01T09:08:27.573Z,95848.63
2023-05-01T09:09:30.361Z,95847.16
2023-05-01T09:10:33.448Z,95840.41
2023-05-01T09:11:35.134Z,95850.50
2023-05-01T09:12:37.778Z,95845.19
2023-05-01T09:13:39.666Z,95854.22
2023-05-01T09:14:41.298Z,95849.00
2023-05-01T09:15:42.898Z,95851.03
2023-05-01T09:16:44.536Z,95856.56
2023-05-01T09:17:47.603Z,95848.81
2023-05-01T09:18:49.936Z,95855.84
2023-05-01T09:19:52.191Z,95848.00
2023-05-01T09:20:55.092Z,95856.66
2023-05-01T09:21:56.957Z,95844.81
2023-05-01T09:22:59.290Z,95851.81
2023-05-01T09:24:01.763Z,95848.16
2023-05-01T09:25:04.229Z,95852.69
2023-05-01T09:26:06.647Z,95848.22
2023-05-01T09:27:08.672Z,95848.63
2023-05-01T09:28:10.579Z,95849.47
2023-05-01T09:29:12.143Z,95850.03
2023-05-01T09:30:37.274Z,95843.38
2023-05-01T09:31:39.261Z,95846.75
2023-05-01T09:32:42.585Z,95851.47
2023-05-01T09:34:00.445Z,95838.97
2023-05-01T09:35:12.074Z,95844.97
2023-05-01T09:36:17.570Z,95850.69
2023-05-01T09:37:27.921Z,95847.34
2023-05-01T09:38:29.458Z,95851.72
2023-05-01T09:39:31.110Z,95848.63
2023-05-01T09:40:32.878Z,95849.38
2023-05-01T09:41:34.503Z,95848.78
2023-05-01T09:42:40.374Z,95851.94
2023-05-01T09:43:41.987Z,95846.59
2023-05-01T09:44:43.920Z,95848.41
2023-05-01T09:45:59.796Z,95850.41
2023-05-01T09:47:02.057Z,95847.91
2023-05-01T09:48:13.547Z,95847.91
2023-05-01T09:49:16.014Z,95841.66
2023-05-01T09:50:35.304Z,95842.31
2023-05-01T09:51:37.056Z,95851.88
2023-05-01T09:52:38.595Z,95848.91
2023-05-01T09:53:40.889Z,95848.72
2023-05-01T09:54:43.365Z,95847.03
2023-05-01T09:56:00.674Z,95848.72
2023-05-01T09:57:02.387Z,95847.34
2023-05-01T09:58:04.030Z,95843.81
2023-05-01T09:59:17.389Z,95843.75
2023-05-01T10:00:21.704Z,95847.97
2023-05-01T10:01:43.703Z,95845.00
2023-05-01T10:02:47.583Z,95846.59
2023-05-01T10:03:54.936Z,95839.97
2023-05-01T10:04:58.904Z,95840.56
2023-05-01T10:06:02.908Z,95840.91
2023-05-01T10:07:14.427Z,95842.66
2023-05-01T10:08:16.579Z,95843.13
2023-05-01T10:09:28.060Z,95851.66
2023-05-01T10:10:29.846Z,95843.97
2023-05-01T10:11:31.548Z,95849.56
2023-05-01T10:12:33.409Z,95843.47
2023-05-01T10:13:34.917Z,95851.31
2023-05-01T10:14:56.948Z,95843.72
2023-05-01T10:16:00.807Z,95844.66
2023-05-01T10:17:17.191Z,95849.84
2023-05-01T10:18:19.881Z,95847.53
2023-05-01T10:19:21.921Z,95844.22
2023-05-01T10:20:23.436Z,95847.25
2023-05-01T10:21:25.568Z,95842.69
2023-05-01T10:22:27.595Z,95849.47
2023-05-01T10:23:29.594Z,95848.09
2023-05-01T10:24:31.659Z,95845.66
2023-05-01T10:25:33.675Z,95844.06
2023-05-01T10:26:36.350Z,95841.56
2023-05-01T10:27:41.149Z,95852.25
2023-05-01T10:28:44.418Z,95844.75
2023-05-01T10:29:47.937Z,95846.75
2023-05-01T10:30:49.969Z,95838.06
2023-05-01T10:31:51.843Z,95838.03
2023-05-01T10:32:55.564Z,95844.81
2023-05-01T10:33:57.094Z,95842.81
2023-05-01T10:35:14.462Z,95846.44
2023-05-01T10:36:26.832Z,95843.31
2023-05-01T10:37:35.666Z,95844.78
2023-05-01T10:38:38.810Z,95844.69
2023-05-01T10:39:40.636Z,95849.97
2023-05-01T10:40:48.883Z,95844.53
2023-05-01T10:42:03.818Z,95845.78
2023-05-01T10:43:26.161Z,95850.34
2023-05-01T10:44:27.881Z,95845.78
2023-05-01T10:45:30.347Z,95843.13
2023-05-01T10:46:31.939Z,95846.31
2023-05-01T10:47:34.852Z,95848.38
2023-05-01T10:48:39.464Z,95846.03
2023-05-01T10:50:04.385Z,95846.06
2023-05-01T10:51:14.353Z,95850.34
2023-05-01T10:52:15.923Z,95847.53
2023-05-01T10:53:18.208Z,95846.84
2023-05-01T10:54:20.396Z,95851.97
2023-05-01T10:55:45.187Z,95847.81
2023-05-01T10:56:48.095Z,95843.91
2023-05-01T10:57:49.599Z,95848.03
2023-05-01T10:58:53.759Z,95846.25
2023-05-01T11:00:04.996Z,95849.66
2023-05-01T11:01:34.496Z,95845.31
2023-05-01T11:02:36.245Z,95843.78
2023-05-01T11:03:40.125Z,95840.38
2023-05-01T11:04:49.339Z,95844.19
2023-05-01T11:06:00.212Z,95843.00
2023-05-01T11:07:02.978Z,95834.75
2023-05-01T11:08:38.155Z,95837.91
2023-05-01T11:09:57.520Z,95837.78
2023-05-01T11:11:23.046Z,95841.31
2023-05-01T11:12:46.860Z,95841.78
2023-05-01T11:14:01.484Z,95834.34
2023-05-01T11:15:04.552Z,95832.22
2023-05-01T11:16:36.847Z,95833.47
2023-05-01T11:17:44.126Z,95835.44
2023-05-01T11:18:46.055Z,95832.53
2023-05-01T11:19:50.629Z,95836.13
2023-05-01T11:20:52.260Z,95836.69
2023-05-01T11:21:54.170Z,95835.41
2023-05-01T11:22:57.107Z,95841.44
2023-05-01T11:24:09.002Z,95833.91
2023-05-01T11:25:24.697Z,95833.72
2023-05-01T11:26:28.588Z,95836.69
2023-05-01T11:27:31.554Z,95841.50
2023-05-01T11:28:33.852Z,95841.69
2023-05-01T11:29:37.122Z,95840.47
2023-05-01T11:30:42.228Z,95846.22
2023-05-01T11:31:48.948Z,95836.97
2023-05-01T11:32:51.945Z,95840.19
2023-05-01T11:33:56.895Z,95839.00
2023-05-01T11:34:58.811Z,95841.25
2023-05-01T11:36:01.648Z,95837.81
2023-05-01T11:37:03.301Z,95839.97
2023-05-01T11:38:05.082Z,95833.41
2023-05-01T11:39:15.518Z,95833.16
2023-05-01T11:40:21.697Z,95841.44
2023-05-01T11:41:24.713Z,95827.41
2023-05-01T11:42:26.442Z,95837.28
2023-05-01T11:43:28.191Z,95837.44
2023-05-01T11:44:30.403Z,95833.03
2023-05-01T11:45:32.828Z,95837.28
2023-05-01T11:46:34.416Z,95834.66
2023-05-01T11:47:36.471Z,95834.63
2023-05-01T11:48:38.258Z,95830.41
2023-05-01T11:49:40.887Z,95827.22
2023-05-01T11:50:42.388Z,95830.81
2023-05-01T11:51:43.834Z,95830.44
2023-05-01T11:52:46.673Z,95828.69
2023-05-01T11:54:03.431Z,95828.81
2023-05-01T11:55:06.073Z,95828.47
2023-05-01T11:56:27.075Z,95830.44
2023-05-01T11:57:28.959Z,95828.25
2023-05-01T11:58:36.222Z,95831.16
2023-05-01T11:59:37.867Z,95825.38
2023-05-01T12:00:43.762Z,95826.84
2023-05-01T12:01:48.148Z,95829.88
2023-05-01T12:03:01.380Z,95827.38
2023-05-01T12:04:04.194Z,95825.50
2023-05-01T12:05:18.497Z,95820.06
2023-05-01T12:06:20.085Z,95824.59
2023-05-01T12:07:24.787Z,95818.97
2023-05-01T12:08:26.662Z,95821.59
2023-05-01T12:09:29.196Z,95811.25
2023-05-01T12:10:31.020Z,95816.25
2023-05-01T12:11:32.566Z,95812.25
2023-05-01T12:12:34.583Z,95813.53
2023-05-01T12:13:36.551Z,95824.94
2023-05-01T12:14:39.386Z,95818.88
2023-05-01T12:15:45.096Z,95820.53
2023-05-01T12:16:47.406Z,95813.66
2023-05-01T12:17:50.443Z,95808.53
2023-05-01T12:18:52.676Z,95809.66
2023-05-01T12:19:54.311Z,95816.53
2023-05-01T12:20:56.431Z,95809.13
2023-05-01T12:22:10.086Z,95809.44
2023-05-01T12:23:13.762Z,95808.25
2023-05-01T12:24:18.081Z,95804.09
2023-05-01T12:25:19.672Z,95807.28
2023-05-01T12:26:27.520Z,95800.00
2023-05-01T12:27:29.029Z,95807.41
2023-05-01T12:28:30.963Z,95811.31
2023-05-01T12:29:42.228Z,95795.59
2023-05-01T12:30:45.849Z,95806.09
2023-05-01T12:31:49.407Z,95799.41
2023-05-01T12:32:51.140Z,95802.94
2023-05-01T12:34:00.656Z,95803.63
2023-05-01T12:35:13.497Z,95802.91
2023-05-01T12:36:15.788Z,95802.16
2023-05-01T12:37:17.392Z,95800.66